Terminal Aerodrome Forecast
Issued by NWS

Current Version | Previous Version | Text Only | Print | Product List | Glossary On
Versions: 1 2 3 4 5 6 7 8 9 10 11 12 13 14 15 16 17 18
000
FTUS41 KBGM 031739
TAFRME
TAF
KRME 031739Z 0318/0418 27010KT P6SM FEW060
     FM040000 VRB03KT P6SM BKN120
     FM041500 24012G22KT P6SM FEW050=

USA.gov is the U.S. government's official web portal to all federal, state and local government web resources and services.